Time;durP1;ratioP1;P1;durP2;ratioP2;P2;SDS_P1;SDS_P2;PMS_P1;PMS_P2;Temp;Humidity;BMP_temperature;BMP_pressure;BME280_temperature;BME280_humidity;BME280_pressure;Samples;Min_cycle;Max_cycle;Signal;HPM_P1;HPM_P2
2022/08/08 00:01:04;;;;;;;0.80;0.80;;;17.60;57.30;;;;;;5082494;28;20621;-79
2022/08/08 00:03:40;;;;;;;1.17;0.90;;;17.50;58.20;;;;;;5084694;28;20652;-79
2022/08/08 00:06:15;;;;;;;2.40;0.93;;;17.50;59.70;;;;;;5084188;28;20714;-79
2022/08/08 00:08:51;;;;;;;1.57;0.90;;;17.40;59.40;;;;;;5089025;28;20630;-79
2022/08/08 00:11:23;;;;;;;1.70;0.80;;;17.40;59.80;;;;;;5087376;28;20607;-79
2022/08/08 00:13:59;;;;;;;1.03;0.83;;;17.40;61.80;;;;;;5087509;28;20653;-79
2022/08/08 00:16:33;;;;;;;1.00;0.90;;;17.40;64.00;;;;;;5095602;28;20714;-79
2022/08/08 00:19:10;;;;;;;2.83;0.77;;;17.30;62.60;;;;;;5084198;28;20628;-79
2022/08/08 00:21:41;;;;;;;0.80;0.80;;;17.30;63.50;;;;;;5088327;28;21199;-80
2022/08/08 00:24:13;;;;;;;1.07;0.80;;;17.20;65.10;;;;;;5084065;28;21039;-79
2022/08/08 00:26:43;;;;;;;1.73;0.93;;;17.20;66.50;;;;;;5085017;28;20631;-78
2022/08/08 00:29:17;;;;;;;0.70;0.70;;;17.20;69.10;;;;;;5089947;28;20634;-78
2022/08/08 00:31:50;;;;;;;2.40;0.80;;;17.10;69.00;;;;;;5079286;28;20633;-78
2022/08/08 00:37:38;;;;;;;1.10;0.77;;;17.00;69.60;;;;;;5095519;28;20599;-78
2022/08/08 00:40:37;;;;;;;1.10;1.00;;;17.10;69.70;;;;;;5083123;28;20988;-78
2022/08/08 00:43:27;;;;;;;0.97;0.80;;;17.00;70.50;;;;;;5081737;28;20648;-78
2022/08/08 00:46:09;;;;;;;1.27;0.97;;;17.00;71.00;;;;;;5086853;28;20675;-78
2022/08/08 00:49:14;;;;;;;0.83;0.70;;;17.00;71.60;;;;;;5087845;28;20805;-78
2022/08/08 00:52:12;;;;;;;1.00;1.00;;;17.00;72.10;;;;;;5062609;28;20638;-79
2022/08/08 00:55:09;;;;;;;1.10;1.00;;;16.90;75.30;;;;;;5088737;28;20643;-79
2022/08/08 00:58:27;;;;;;;1.93;0.90;;;16.90;76.60;;;;;;5090918;28;20629;-79
2022/08/08 01:01:08;;;;;;;1.00;1.00;;;16.90;77.60;;;;;;5093340;28;20631;-79
2022/08/08 01:04:07;;;;;;;0.90;0.90;;;16.80;77.90;;;;;;5082872;28;20666;-79
2022/08/08 01:07:24;;;;;;;1.23;0.80;;;16.80;78.10;;;;;;5084342;28;21229;-79
2022/08/08 01:10:31;;;;;;;1.27;1.10;;;16.80;82.20;;;;;;5084242;28;21187;-79
2022/08/08 01:13:22;;;;;;;1.50;1.40;;;16.70;85.00;;;;;;5070680;28;20660;-78
2022/08/08 01:16:16;;;;;;;3.00;1.43;;;16.70;87.10;;;;;;5086129;28;20645;-79
2022/08/08 01:19:19;;;;;;;1.87;1.00;;;16.60;88.50;;;;;;5084440;28;20674;-79
2022/08/08 01:22:17;;;;;;;1.53;1.30;;;16.60;88.30;;;;;;5074248;28;20642;-78
2022/08/08 01:25:17;;;;;;;2.17;1.20;;;16.60;88.10;;;;;;5088864;28;20674;-79
2022/08/08 01:28:15;;;;;;;1.03;1.03;;;16.50;89.70;;;;;;5090902;28;20656;-79
2022/08/08 01:31:28;;;;;;;1.53;1.20;;;16.50;90.30;;;;;;5067431;28;21079;-78
2022/08/08 01:34:28;;;;;;;1.87;1.20;;;16.40;90.20;;;;;;5061318;28;20667;-79
2022/08/08 01:37:33;;;;;;;1.30;1.20;;;16.40;90.80;;;;;;5090603;28;20724;-78
2022/08/08 01:40:21;;;;;;;1.17;1.00;;;16.30;90.60;;;;;;5095133;28;20710;-78
2022/08/08 01:42:54;;;;;;;1.03;0.90;;;16.30;91.20;;;;;;5089357;28;20624;-78
2022/08/08 01:45:42;;;;;;;1.10;1.10;;;16.20;91.50;;;;;;5082219;28;20667;-79
2022/08/08 01:48:18;;;;;;;2.80;0.90;;;16.20;91.70;;;;;;5097753;28;20615;-78
2022/08/08 01:51:05;;;;;;;1.90;0.97;;;16.20;93.70;;;;;;5088245;28;20622;-79
2022/08/08 01:53:44;;;;;;;1.23;0.80;;;16.10;94.30;;;;;;5094077;28;20647;-79
2022/08/08 01:56:23;;;;;;;1.73;1.10;;;16.10;95.00;;;;;;5098023;28;20630;-79
2022/08/08 01:59:08;;;;;;;1.23;1.13;;;16.10;93.80;;;;;;5089629;28;20618;-78
2022/08/08 02:01:54;;;;;;;1.03;0.90;;;16.10;94.30;;;;;;5089447;28;20631;-79
2022/08/08 02:04:28;;;;;;;1.03;1.03;;;16.00;94.30;;;;;;5088896;28;20650;-78
2022/08/08 02:07:00;;;;;;;2.00;1.10;;;16.00;94.50;;;;;;5090066;28;21293;-79
2022/08/08 02:09:58;;;;;;;2.63;1.33;;;15.90;94.10;;;;;;5094168;28;20629;-80
2022/08/08 02:12:32;;;;;;;1.30;1.20;;;15.90;94.40;;;;;;5088215;28;20638;-79
2022/08/08 02:15:08;;;;;;;1.50;1.40;;;15.80;96.10;;;;;;5094603;28;20642;-79
2022/08/08 02:17:42;;;;;;;1.53;1.10;;;15.80;96.00;;;;;;5092723;28;21020;-79
2022/08/08 02:20:14;;;;;;;2.07;1.10;;;15.80;97.00;;;;;;5090856;28;20621;-79
2022/08/08 02:22:52;;;;;;;2.30;1.30;;;15.70;97.20;;;;;;5088805;28;20624;-79
2022/08/08 02:25:24;;;;;;;1.43;1.33;;;15.70;97.90;;;;;;5089055;28;20669;-79
2022/08/08 02:27:58;;;;;;;1.63;1.40;;;15.70;99.90;;;;;;5091795;28;20624;-79
2022/08/08 02:30:38;;;;;;;2.13;1.47;;;15.60;99.90;;;;;;5095112;28;20977;-78
2022/08/08 02:33:29;;;;;;;1.63;1.50;;;15.60;99.90;;;;;;5094058;28;20735;-79
2022/08/08 02:36:12;;;;;;;1.80;1.30;;;15.60;99.90;;;;;;5095514;28;21080;-78
2022/08/08 02:39:06;;;;;;;2.20;1.77;;;15.50;99.90;;;;;;5087993;28;20681;-79
2022/08/08 02:42:23;;;;;;;2.23;2.00;;;15.40;99.90;;;;;;5089294;28;20627;-79
2022/08/08 02:45:26;;;;;;;2.33;1.83;;;15.50;99.90;;;;;;5027389;28;20725;-79
2022/08/08 02:48:21;;;;;;;2.17;1.73;;;15.40;99.90;;;;;;5055049;28;20624;-79
2022/08/08 02:51:29;;;;;;;3.70;2.07;;;15.30;99.90;;;;;;5067355;28;20629;-79
2022/08/08 02:54:06;;;;;;;2.37;2.00;;;15.30;99.90;;;;;;5084652;28;20648;-79
2022/08/08 02:57:10;;;;;;;2.10;1.90;;;15.20;99.90;;;;;;5094373;28;20611;-79
2022/08/08 03:00:04;;;;;;;3.10;1.73;;;15.20;99.90;;;;;;5085096;28;20615;-79
2022/08/08 03:03:17;;;;;;;1.73;1.50;;;15.20;99.90;;;;;;5087342;28;20627;-78
2022/08/08 03:06:21;;;;;;;1.63;1.53;;;15.20;99.90;;;;;;5074324;28;20668;-78
2022/08/08 03:09:24;;;;;;;1.37;1.37;;;15.10;99.90;;;;;;5076979;28;21236;-79
2022/08/08 03:12:30;;;;;;;2.40;1.87;;;15.10;99.90;;;;;;5049120;28;21046;-78
2022/08/08 03:15:09;;;;;;;2.10;1.40;;;15.00;99.90;;;;;;5088190;28;20640;-78
2022/08/08 03:17:43;;;;;;;1.50;1.40;;;15.00;99.90;;;;;;5093306;28;21189;-78
2022/08/08 03:20:10;;;;;;;3.30;1.60;;;15.00;99.90;;;;;;5087272;28;20701;-78
2022/08/08 03:22:46;;;;;;;2.13;1.50;;;14.90;99.90;;;;;;5091073;28;21260;-78
2022/08/08 03:25:14;;;;;;;2.20;1.67;;;14.90;99.90;;;;;;5091213;28;21201;-78
2022/08/08 03:27:45;;;;;;;1.80;1.70;;;14.90;99.90;;;;;;5092314;28;20627;-79
2022/08/08 03:30:16;;;;;;;1.77;1.60;;;14.90;99.90;;;;;;5089184;28;21170;-79
2022/08/08 03:35:38;;;;;;;1.90;1.30;;;14.80;99.90;;;;;;5079913;28;20645;-78
2022/08/08 03:38:06;;;;;;;1.60;1.50;;;14.80;99.90;;;;;;5085383;28;20619;-79
2022/08/08 03:40:33;;;;;;;1.60;1.50;;;14.80;99.90;;;;;;5092423;28;20654;-78
2022/08/08 03:43:01;;;;;;;1.50;1.40;;;14.70;99.90;;;;;;5091186;28;20655;-79
2022/08/08 03:45:29;;;;;;;1.80;1.53;;;14.70;99.90;;;;;;5089269;28;20667;-78
2022/08/08 03:47:58;;;;;;;2.17;1.97;;;14.70;99.90;;;;;;5088544;28;20655;-79
2022/08/08 03:50:26;;;;;;;1.83;1.73;;;14.60;99.90;;;;;;5076384;28;21371;-79
2022/08/08 03:52:53;;;;;;;1.87;1.70;;;14.60;99.90;;;;;;5075676;28;21247;-79
2022/08/08 03:55:23;;;;;;;1.93;1.73;;;14.60;99.90;;;;;;5090209;28;20612;-79
2022/08/08 03:57:52;;;;;;;1.30;1.20;;;14.60;99.90;;;;;;5086541;28;21178;-79
2022/08/08 04:00:21;;;;;;;3.30;1.83;;;14.50;99.90;;;;;;5091077;28;21062;-78
2022/08/08 04:02:56;;;;;;;1.60;1.50;;;14.50;99.90;;;;;;5090878;28;20620;-79
2022/08/08 04:05:25;;;;;;;4.87;1.87;;;14.50;99.90;;;;;;5088094;28;20665;-79
2022/08/08 04:07:52;;;;;;;1.87;1.50;;;14.40;99.90;;;;;;5087173;28;20630;-79
2022/08/08 04:10:19;;;;;;;1.50;1.40;;;14.50;99.90;;;;;;5091606;28;20629;-79
2022/08/08 04:12:47;;;;;;;1.50;1.40;;;14.40;99.90;;;;;;5086426;28;20640;-78
2022/08/08 04:15:14;;;;;;;2.00;1.80;;;14.40;99.90;;;;;;5086751;28;20657;-78
2022/08/08 04:17:43;;;;;;;2.00;1.37;;;14.40;99.90;;;;;;5079444;28;20651;-78
2022/08/08 04:20:11;;;;;;;2.10;1.57;;;14.40;99.90;;;;;;5075510;28;20621;-79
2022/08/08 04:22:38;;;;;;;1.47;1.37;;;14.40;99.90;;;;;;5083166;28;20634;-78
2022/08/08 04:25:06;;;;;;;2.17;1.60;;;14.40;99.90;;;;;;5083746;28;20626;-79
2022/08/08 04:27:33;;;;;;;1.53;1.43;;;14.40;99.90;;;;;;5088971;28;20631;-78
2022/08/08 04:30:02;;;;;;;1.47;1.37;;;14.40;99.90;;;;;;5086647;28;20638;-78
2022/08/08 04:32:29;;;;;;;1.57;1.47;;;14.40;99.90;;;;;;5089506;28;21162;-79
2022/08/08 04:34:56;;;;;;;5.27;2.37;;;14.40;99.90;;;;;;5091217;28;21270;-79
2022/08/08 04:37:23;;;;;;;2.03;1.70;;;14.50;99.90;;;;;;5082093;28;20625;-78
2022/08/08 04:39:50;;;;;;;1.50;1.40;;;14.40;99.90;;;;;;5074782;28;20637;-79
2022/08/08 04:42:17;;;;;;;3.97;2.63;;;14.40;99.90;;;;;;5092636;28;20634;-79
2022/08/08 04:44:44;;;;;;;1.80;1.67;;;14.50;99.90;;;;;;5083327;28;20656;-79
2022/08/08 04:47:12;;;;;;;4.67;1.73;;;14.40;99.90;;;;;;5089609;28;20669;-79
2022/08/08 04:49:39;;;;;;;1.80;1.70;;;14.40;99.90;;;;;;5084960;28;20615;-79
2022/08/08 04:52:06;;;;;;;2.57;2.33;;;14.50;99.90;;;;;;5085588;28;20628;-80
2022/08/08 04:54:32;;;;;;;2.43;2.23;;;14.50;99.90;;;;;;5090296;28;20650;-81
2022/08/08 04:56:59;;;;;;;2.77;1.73;;;14.60;99.90;;;;;;5087387;28;20636;-80
2022/08/08 04:59:27;;;;;;;2.43;1.53;;;14.60;99.90;;;;;;5084216;28;20632;-80
2022/08/08 05:01:53;;;;;;;3.20;2.10;;;14.60;99.90;;;;;;5087139;28;20624;-80
2022/08/08 05:04:22;;;;;;;3.30;2.30;;;14.70;99.90;;;;;;5092618;28;20655;-80
2022/08/08 05:06:48;;;;;;;1.90;1.80;;;14.70;99.90;;;;;;5084457;28;20667;-79
2022/08/08 05:09:15;;;;;;;1.80;1.70;;;14.70;99.90;;;;;;5086555;28;20707;-80
2022/08/08 05:11:42;;;;;;;2.17;2.07;;;14.80;99.90;;;;;;5088059;28;21042;-80
2022/08/08 05:14:10;;;;;;;1.87;1.73;;;14.90;99.90;;;;;;5092507;28;20662;-80
2022/08/08 05:16:37;;;;;;;2.23;1.67;;;14.90;99.90;;;;;;5089856;28;20644;-80
2022/08/08 05:19:04;;;;;;;3.50;1.47;;;15.00;99.90;;;;;;5090980;28;20629;-80
2022/08/08 05:21:32;;;;;;;1.80;1.70;;;15.00;99.90;;;;;;5088853;28;20636;-80
2022/08/08 05:23:59;;;;;;;1.60;1.50;;;15.10;99.90;;;;;;5088120;28;21310;-80
2022/08/08 05:26:26;;;;;;;1.70;1.60;;;15.20;99.90;;;;;;5089007;28;21343;-79
2022/08/08 05:28:52;;;;;;;1.90;1.70;;;15.30;99.90;;;;;;5086317;28;20700;-79
2022/08/08 05:31:19;;;;;;;2.70;2.03;;;15.40;99.90;;;;;;5086551;28;21194;-79
2022/08/08 05:33:46;;;;;;;2.57;1.83;;;15.50;99.90;;;;;;5084301;28;21017;-79
2022/08/08 05:36:16;;;;;;;3.53;2.27;;;15.60;99.90;;;;;;5080001;28;20755;-79
2022/08/08 05:38:47;;;;;;;4.93;2.40;;;15.70;99.90;;;;;;5087198;28;20640;-79
2022/08/08 05:41:17;;;;;;;2.33;2.03;;;15.80;99.90;;;;;;5087375;28;20617;-79
2022/08/08 05:43:47;;;;;;;3.20;1.90;;;15.80;99.90;;;;;;5087339;28;20725;-79
2022/08/08 05:46:15;;;;;;;3.33;3.03;;;15.90;99.90;;;;;;5088564;28;21066;-79
2022/08/08 05:48:42;;;;;;;2.67;2.47;;;16.00;99.90;;;;;;5089024;28;20988;-78
2022/08/08 05:51:09;;;;;;;2.53;1.87;;;16.10;99.90;;;;;;5086353;28;20674;-78
2022/08/08 05:53:36;;;;;;;4.20;2.37;;;16.20;99.90;;;;;;5088783;28;21247;-79
2022/08/08 05:56:08;;;;;;;3.83;2.10;;;16.30;99.90;;;;;;5082970;28;20636;-79
2022/08/08 05:58:35;;;;;;;2.50;1.93;;;16.30;99.90;;;;;;5075026;28;20642;-79
2022/08/08 06:01:02;;;;;;;2.80;2.00;;;16.40;99.90;;;;;;5073563;28;20666;-78
2022/08/08 06:03:30;;;;;;;3.50;2.30;;;16.50;99.90;;;;;;5073415;28;20993;-79
2022/08/08 06:06:00;;;;;;;3.60;2.43;;;16.50;99.90;;;;;;5083306;28;20672;-79
2022/08/08 06:08:29;;;;;;;2.87;2.67;;;16.60;99.90;;;;;;5096026;28;20619;-79
2022/08/08 06:10:57;;;;;;;2.67;2.47;;;16.60;99.90;;;;;;5088134;28;20658;-79
2022/08/08 06:13:28;;;;;;;3.00;2.43;;;16.70;99.90;;;;;;5089870;28;20631;-79
2022/08/08 06:15:55;;;;;;;2.63;2.30;;;16.70;99.90;;;;;;5085160;28;20682;-79
2022/08/08 06:18:24;;;;;;;5.53;2.27;;;16.70;99.90;;;;;;5097005;28;20723;-79
2022/08/08 06:20:53;;;;;;;2.70;2.50;;;16.90;99.90;;;;;;5092972;28;20706;-79
2022/08/08 06:23:20;;;;;;;3.30;2.60;;;17.00;99.90;;;;;;5096607;28;21222;-79
2022/08/08 06:25:56;;;;;;;4.23;2.63;;;17.10;99.90;;;;;;5084339;28;21021;-79
2022/08/08 06:28:31;;;;;;;2.50;2.23;;;17.20;99.90;;;;;;5088913;28;20614;-79
2022/08/08 06:31:00;;;;;;;5.10;2.53;;;17.30;99.90;;;;;;5090035;28;20683;-79
2022/08/08 06:33:35;;;;;;;3.97;2.70;;;17.40;99.90;;;;;;5084183;28;20615;-79
2022/08/08 06:36:04;;;;;;;3.17;2.87;;;17.50;99.90;;;;;;5080672;28;20623;-79
2022/08/08 06:38:35;;;;;;;2.80;2.60;;;17.70;99.90;;;;;;5089090;28;20626;-78
2022/08/08 06:41:06;;;;;;;3.10;2.80;;;17.80;99.90;;;;;;5090855;28;20697;-78
2022/08/08 06:43:36;;;;;;;3.93;2.80;;;17.90;99.90;;;;;;5085126;28;20632;-78
2022/08/08 06:46:04;;;;;;;3.43;3.13;;;18.00;99.90;;;;;;5080458;28;20664;-78
2022/08/08 06:48:32;;;;;;;3.60;3.30;;;18.10;99.90;;;;;;5078719;28;20624;-78
2022/08/08 06:50:59;;;;;;;3.67;3.37;;;18.20;99.90;;;;;;5082162;28;20672;-78
2022/08/08 06:53:27;;;;;;;4.07;3.67;;;18.30;99.90;;;;;;5092058;28;20624;-78
2022/08/08 06:55:54;;;;;;;3.23;2.77;;;18.40;99.90;;;;;;5088266;28;20997;-79
2022/08/08 06:58:21;;;;;;;3.17;2.57;;;18.50;99.90;;;;;;5065557;28;21237;-78
2022/08/08 07:00:51;;;;;;;2.83;2.60;;;18.60;99.90;;;;;;5090705;28;21008;-78
2022/08/08 07:03:30;;;;;;;3.47;3.20;;;18.80;99.90;;;;;;5085378;28;20624;-78
2022/08/08 07:06:00;;;;;;;3.60;2.77;;;18.90;99.90;;;;;;5091728;28;20635;-77
2022/08/08 07:08:33;;;;;;;5.63;2.97;;;19.00;99.90;;;;;;5090043;28;20631;-78
2022/08/08 07:11:04;;;;;;;2.90;2.50;;;19.00;99.90;;;;;;5086527;28;21067;-79
2022/08/08 07:13:39;;;;;;;4.70;2.70;;;19.00;99.90;;;;;;5092021;28;20604;-79
2022/08/08 07:16:12;;;;;;;3.90;2.97;;;19.20;99.90;;;;;;5092570;28;21005;-78
2022/08/08 07:18:50;;;;;;;3.80;3.37;;;19.40;99.90;;;;;;5084337;28;20623;-78
2022/08/08 07:21:20;;;;;;;3.10;2.80;;;19.50;99.90;;;;;;5091161;28;20639;-79
2022/08/08 07:23:54;;;;;;;4.00;2.90;;;19.70;99.90;;;;;;5083638;28;20632;-78
2022/08/08 07:26:22;;;;;;;3.20;2.60;;;19.80;99.90;;;;;;5090211;28;20710;-78
2022/08/08 07:28:49;;;;;;;5.30;2.77;;;19.90;99.90;;;;;;5089557;28;21166;-79
2022/08/08 07:31:19;;;;;;;6.70;2.90;;;20.00;99.90;;;;;;5093973;28;20711;-79
2022/08/08 07:33:48;;;;;;;4.93;3.07;;;20.20;99.90;;;;;;5079699;28;20761;-78
2022/08/08 07:36:16;;;;;;;3.73;2.47;;;20.20;99.90;;;;;;5088505;28;20682;-79
2022/08/08 07:38:48;;;;;;;3.90;2.60;;;20.40;99.90;;;;;;5084926;28;20623;-78
2022/08/08 07:41:18;;;;;;;3.33;2.60;;;20.50;99.90;;;;;;5088595;28;20705;-78
2022/08/08 07:43:45;;;;;;;3.13;2.83;;;20.60;99.90;;;;;;5081152;28;20646;-79
2022/08/08 07:46:12;;;;;;;3.43;3.13;;;20.70;99.90;;;;;;5087350;28;20663;-79
2022/08/08 07:48:40;;;;;;;3.77;3.10;;;20.80;99.90;;;;;;5090809;28;20624;-79
2022/08/08 07:51:10;;;;;;;3.60;2.73;;;20.90;99.90;;;;;;5081407;28;20660;-78
2022/08/08 07:53:44;;;;;;;2.70;2.27;;;21.10;99.90;;;;;;5080096;28;20646;-78
2022/08/08 07:56:12;;;;;;;3.40;2.43;;;21.30;99.90;;;;;;5077008;28;20611;-78
2022/08/08 07:58:42;;;;;;;7.67;2.47;;;21.40;99.10;;;;;;5087181;28;20632;-78
2022/08/08 08:01:12;;;;;;;3.40;2.43;;;21.50;98.80;;;;;;5089229;28;20766;-78
2022/08/08 08:03:47;;;;;;;2.63;2.50;;;21.70;98.50;;;;;;5083486;28;20624;-78
2022/08/08 08:06:15;;;;;;;3.00;2.10;;;21.80;98.10;;;;;;5089664;28;21112;-78
2022/08/08 08:08:47;;;;;;;2.90;2.40;;;21.90;97.60;;;;;;5088780;28;20701;-78
2022/08/08 08:11:16;;;;;;;2.80;2.60;;;22.00;97.10;;;;;;5086636;28;20746;-78
2022/08/08 08:13:51;;;;;;;2.90;2.70;;;22.20;97.30;;;;;;5084262;28;20616;-78
2022/08/08 08:16:21;;;;;;;3.10;2.80;;;22.30;97.00;;;;;;5092929;28;21115;-78
2022/08/08 08:18:53;;;;;;;2.40;2.20;;;22.50;96.60;;;;;;5084129;28;20625;-78
2022/08/08 08:21:22;;;;;;;4.27;2.53;;;22.50;96.00;;;;;;5086287;28;20743;-78
2022/08/08 08:23:49;;;;;;;3.40;3.10;;;22.60;95.80;;;;;;5083661;28;20613;-79
2022/08/08 08:26:17;;;;;;;2.30;2.20;;;22.60;95.50;;;;;;5087624;28;20628;-79
2022/08/08 08:28:44;;;;;;;2.80;2.13;;;22.70;94.90;;;;;;5088498;28;20623;-80
2022/08/08 08:31:11;;;;;;;2.87;2.60;;;22.90;94.70;;;;;;5090672;28;20984;-79
2022/08/08 08:33:38;;;;;;;3.77;3.13;;;23.00;94.60;;;;;;5085029;28;21514;-80
2022/08/08 08:36:08;;;;;;;4.33;3.30;;;23.10;94.20;;;;;;5092292;28;20657;-79
2022/08/08 08:38:36;;;;;;;5.90;2.70;;;23.20;93.90;;;;;;5089861;28;20638;-79
2022/08/08 08:41:03;;;;;;;3.00;2.80;;;23.30;93.60;;;;;;5084719;28;20705;-79
2022/08/08 08:43:32;;;;;;;3.93;2.37;;;23.30;93.10;;;;;;5090326;28;21315;-79
2022/08/08 08:46:00;;;;;;;2.87;2.67;;;23.40;92.90;;;;;;5058641;28;20633;-79
2022/08/08 08:48:28;;;;;;;2.60;2.40;;;23.50;92.90;;;;;;5087059;28;21031;-79
2022/08/08 08:50:56;;;;;;;2.57;2.37;;;23.60;92.40;;;;;;5077627;28;21294;-79
2022/08/08 08:53:26;;;;;;;2.53;2.33;;;23.60;92.30;;;;;;5081052;28;21085;-79
2022/08/08 08:55:55;;;;;;;2.70;2.50;;;23.70;92.20;;;;;;5076950;28;20624;-79
2022/08/08 08:58:29;;;;;;;2.80;2.20;;;23.80;91.80;;;;;;5086272;28;20688;-79
2022/08/08 09:00:58;;;;;;;2.40;2.20;;;23.90;92.30;;;;;;5084481;28;20656;-79
2022/08/08 09:03:27;;;;;;;3.33;2.33;;;24.10;91.60;;;;;;5091179;28;21172;-79
2022/08/08 09:05:55;;;;;;;2.53;2.33;;;24.10;91.20;;;;;;5085282;28;20621;-79
2022/08/08 09:08:26;;;;;;;3.30;2.50;;;24.20;91.00;;;;;;5094722;28;20667;-79
2022/08/08 09:10:53;;;;;;;2.33;2.13;;;24.30;90.70;;;;;;5083787;28;20668;-79
2022/08/08 09:13:21;;;;;;;4.50;2.60;;;24.40;90.80;;;;;;5084869;28;20990;-79
2022/08/08 09:15:49;;;;;;;2.17;2.07;;;24.60;90.30;;;;;;5088506;28;20631;-79
2022/08/08 09:18:17;;;;;;;5.90;2.37;;;24.70;88.70;;;;;;5090323;28;20622;-79
2022/08/08 09:20:45;;;;;;;6.00;2.93;;;24.90;88.30;;;;;;5088344;28;20729;-79
2022/08/08 09:23:13;;;;;;;2.50;2.30;;;25.10;88.40;;;;;;5090387;28;20952;-79
2022/08/08 09:25:47;;;;;;;4.27;2.80;;;25.20;86.90;;;;;;5085076;28;20750;-79
2022/08/08 09:28:15;;;;;;;3.20;2.10;;;25.30;83.60;;;;;;5089891;28;21341;-79
2022/08/08 09:30:44;;;;;;;2.30;1.90;;;25.40;82.10;;;;;;5089282;28;20656;-79
2022/08/08 09:33:16;;;;;;;2.83;1.80;;;25.50;80.80;;;;;;5080486;28;20707;-79
2022/08/08 09:35:47;;;;;;;1.90;1.80;;;25.70;77.20;;;;;;5070479;28;20616;-79
2022/08/08 09:38:21;;;;;;;2.27;1.73;;;25.80;78.30;;;;;;5080823;28;20615;-79
2022/08/08 09:40:54;;;;;;;3.13;2.07;;;25.90;77.40;;;;;;5090674;28;20651;-79
2022/08/08 09:43:29;;;;;;;1.60;1.50;;;26.00;73.70;;;;;;5093383;28;20608;-79
2022/08/08 09:45:59;;;;;;;1.20;1.20;;;26.10;71.50;;;;;;5089988;28;20632;-79
2022/08/08 09:48:30;;;;;;;1.50;1.40;;;26.20;70.10;;;;;;5092989;28;21249;-79
2022/08/08 09:50:58;;;;;;;1.40;1.30;;;26.40;68.10;;;;;;5077120;28;20657;-79
2022/08/08 09:53:41;;;;;;;2.70;1.30;;;26.40;67.70;;;;;;5081227;28;21163;-78
2022/08/08 09:56:11;;;;;;;1.90;1.47;;;26.60;67.40;;;;;;5077772;28;21176;-79
2022/08/08 09:58:39;;;;;;;3.13;1.67;;;26.60;64.80;;;;;;5086822;28;20679;-79
2022/08/08 10:01:08;;;;;;;1.87;1.30;;;26.70;65.70;;;;;;5095633;28;20656;-79
2022/08/08 10:03:36;;;;;;;2.23;2.03;;;26.80;65.30;;;;;;5084027;28;20665;-79
2022/08/08 10:06:13;;;;;;;2.23;1.73;;;26.80;64.40;;;;;;5086746;28;20631;-79
2022/08/08 10:08:44;;;;;;;1.90;1.70;;;26.60;62.50;;;;;;5074881;28;20969;-79
2022/08/08 10:11:12;;;;;;;2.87;1.53;;;26.50;63.30;;;;;;5072470;28;20702;-79
2022/08/08 10:13:51;;;;;;;1.77;1.67;;;26.40;63.80;;;;;;5075028;28;20639;-79
2022/08/08 10:16:18;;;;;;;1.70;1.60;;;26.50;64.50;;;;;;5059014;28;20624;-79
2022/08/08 10:18:45;;;;;;;1.80;1.70;;;26.60;65.50;;;;;;5087625;28;20990;-79
2022/08/08 10:21:13;;;;;;;5.93;2.77;;;26.70;64.70;;;;;;5095269;28;20647;-79
2022/08/08 10:23:41;;;;;;;2.00;1.80;;;26.90;65.00;;;;;;5087939;28;20636;-77
2022/08/08 10:26:16;;;;;;;1.57;1.30;;;26.90;63.10;;;;;;5093220;28;20629;-77
2022/08/08 10:28:54;;;;;;;5.83;3.17;;;26.80;62.60;;;;;;5090547;28;20650;-78
2022/08/08 10:34:14;;;;;;;7.07;5.30;;;27.20;61.00;;;;;;5092468;28;20589;-77
2022/08/08 10:36:41;;;;;;;2.07;1.47;;;27.10;60.20;;;;;;5087275;28;20629;-77
2022/08/08 10:39:10;;;;;;;4.90;2.47;;;27.10;60.00;;;;;;5089630;28;20625;-79
2022/08/08 10:41:38;;;;;;;2.63;2.43;;;27.20;58.90;;;;;;5092782;28;20658;-78
2022/08/08 10:44:10;;;;;;;1.63;1.53;;;27.40;58.40;;;;;;5092396;28;20624;-78
2022/08/08 10:46:37;;;;;;;5.10;2.80;;;27.80;58.10;;;;;;5090475;28;20631;-79
2022/08/08 10:49:04;;;;;;;7.90;4.40;;;28.10;57.60;;;;;;5091094;28;20672;-78
2022/08/08 10:51:39;;;;;;;3.30;3.00;;;28.50;56.90;;;;;;5083949;28;20640;-79
2022/08/08 10:54:06;;;;;;;3.23;2.40;;;28.80;56.40;;;;;;5084238;28;20615;-78
2022/08/08 10:56:34;;;;;;;3.60;3.30;;;29.20;55.80;;;;;;5084693;28;20654;-79
2022/08/08 10:59:07;;;;;;;1.60;1.50;;;29.50;53.40;;;;;;5089373;28;21300;-79
2022/08/08 11:01:37;;;;;;;2.30;2.20;;;29.60;53.20;;;;;;5068704;28;20714;-79
2022/08/08 11:04:08;;;;;;;2.37;1.70;;;29.80;52.40;;;;;;5093612;28;20628;-78
2022/08/08 11:06:37;;;;;;;2.73;2.50;;;30.00;52.10;;;;;;5087424;28;20634;-78
2022/08/08 11:09:05;;;;;;;1.37;1.27;;;30.40;51.80;;;;;;5094597;28;21021;-78
2022/08/08 11:11:38;;;;;;;3.70;1.50;;;30.30;49.90;;;;;;5086431;28;20652;-78
2022/08/08 11:14:07;;;;;;;5.80;1.57;;;30.40;50.10;;;;;;5089675;28;20747;-78
2022/08/08 11:16:36;;;;;;;3.00;1.70;;;30.50;48.80;;;;;;5089569;28;20640;-78
2022/08/08 11:19:04;;;;;;;2.30;1.60;;;30.70;47.90;;;;;;5088400;28;20629;-79
2022/08/08 11:21:39;;;;;;;3.53;1.40;;;31.00;48.10;;;;;;5068748;28;20650;-79
2022/08/08 11:24:08;;;;;;;1.40;1.30;;;31.30;47.30;;;;;;5087837;28;20652;-78
2022/08/08 11:26:37;;;;;;;5.07;1.70;;;31.70;48.00;;;;;;5092139;28;20619;-78
2022/08/08 11:29:06;;;;;;;2.80;1.37;;;32.00;47.20;;;;;;5084357;28;20669;-79
2022/08/08 11:31:36;;;;;;;5.33;1.40;;;32.30;46.40;;;;;;5091219;28;21041;-79
2022/08/08 11:34:05;;;;;;;1.50;1.40;;;32.50;46.00;;;;;;5088695;28;20677;-79
2022/08/08 11:36:34;;;;;;;1.47;1.30;;;32.80;44.50;;;;;;5089201;28;20692;-79
2022/08/08 11:39:02;;;;;;;3.37;1.00;;;32.40;42.10;;;;;;5090815;28;20632;-78
2022/08/08 11:41:30;;;;;;;1.50;1.20;;;32.30;42.10;;;;;;5085715;28;21215;-79
2022/08/08 11:43:57;;;;;;;1.93;1.20;;;32.60;42.70;;;;;;5082412;28;21244;-79
2022/08/08 11:46:26;;;;;;;2.90;1.20;;;32.90;41.20;;;;;;5076167;28;20628;-79
2022/08/08 11:48:53;;;;;;;0.90;0.90;;;32.90;41.70;;;;;;5083272;28;20671;-79
2022/08/08 11:51:22;;;;;;;1.23;1.13;;;32.90;40.80;;;;;;5087051;28;20651;-79
2022/08/08 11:53:50;;;;;;;2.97;2.87;;;33.10;40.30;;;;;;5090687;28;21225;-77
2022/08/08 11:56:21;;;;;;;1.20;1.10;;;33.40;40.90;;;;;;5089501;28;20623;-79
2022/08/08 11:58:48;;;;;;;12.63;3.00;;;33.90;39.90;;;;;;5087081;28;20640;-79
2022/08/08 12:01:15;;;;;;;3.30;1.57;;;33.90;38.90;;;;;;5092299;28;21224;-79
2022/08/08 12:03:49;;;;;;;2.60;1.63;;;34.20;38.40;;;;;;5081978;28;20644;-79
2022/08/08 12:06:17;;;;;;;1.90;1.30;;;34.50;38.10;;;;;;5072568;28;21356;-79
2022/08/08 12:08:45;;;;;;;2.40;1.17;;;34.80;37.70;;;;;;5075137;28;20663;-79
2022/08/08 12:11:14;;;;;;;2.20;1.20;;;34.70;37.60;;;;;;5089171;28;20657;-79
2022/08/08 12:13:41;;;;;;;3.80;1.40;;;35.10;36.90;;;;;;5092517;28;20657;-79
2022/08/08 12:16:10;;;;;;;1.93;1.30;;;35.40;36.70;;;;;;5083707;28;21012;-79
2022/08/08 12:18:46;;;;;;;2.40;1.37;;;35.50;35.10;;;;;;5078893;28;20624;-78
2022/08/08 12:21:24;;;;;;;1.80;1.40;;;35.30;36.20;;;;;;5096353;28;20657;-78
2022/08/08 12:24:02;;;;;;;1.50;1.40;;;35.40;34.40;;;;;;5085110;28;20620;-78
2022/08/08 12:26:37;;;;;;;1.10;1.00;;;35.20;34.20;;;;;;5090822;28;20632;-78
2022/08/08 12:29:22;;;;;;;3.53;1.40;;;35.40;34.60;;;;;;5090417;28;20651;-78
2022/08/08 12:32:05;;;;;;;4.73;1.30;;;35.50;34.00;;;;;;5082640;28;20651;-78
2022/08/08 12:34:42;;;;;;;1.37;1.23;;;35.90;34.90;;;;;;5089197;28;20197;-78
2022/08/08 12:37:11;;;;;;;2.20;1.50;;;36.40;34.70;;;;;;5086139;28;20289;-78
2022/08/08 12:39:38;;;;;;;1.30;1.20;;;36.70;33.40;;;;;;5085401;28;20197;-78
2022/08/08 12:42:05;;;;;;;1.23;1.13;;;37.10;33.60;;;;;;5090130;28;20723;-78
2022/08/08 12:44:32;;;;;;;1.65;1.52;;;37.50;32.80;;;;;;5087498;28;20258;-78
2022/08/08 12:47:00;;;;;;;1.30;1.20;;;37.80;31.90;;;;;;5081541;28;20228;-78
2022/08/08 12:49:29;;;;;;;1.60;1.50;;;37.70;30.80;;;;;;5085029;28;20227;-78
2022/08/08 12:51:58;;;;;;;1.67;1.33;;;37.90;31.20;;;;;;5071039;28;20270;-78
2022/08/08 12:54:26;;;;;;;2.55;1.30;;;37.60;30.50;;;;;;5077430;28;20206;-77
2022/08/08 12:56:54;;;;;;;1.40;1.30;;;37.00;31.40;;;;;;5081765;28;20201;-78
2022/08/08 12:59:22;;;;;;;2.90;1.57;;;36.20;31.00;;;;;;5078957;28;20187;-78
2022/08/08 13:01:51;;;;;;;1.30;1.20;;;36.00;31.70;;;;;;5081106;28;20558;-77
2022/08/08 13:04:20;;;;;;;3.83;1.17;;;36.60;31.70;;;;;;5076788;28;20201;-78
2022/08/08 13:06:55;;;;;;;3.35;1.98;;;37.20;30.60;;;;;;5080584;28;20210;-78
2022/08/08 13:09:32;;;;;;;3.65;1.30;;;37.70;30.30;;;;;;5082294;28;21100;-79
2022/08/08 13:11:59;;;;;;;3.08;1.10;;;38.30;30.30;;;;;;5084997;28;20237;-78
2022/08/08 13:14:37;;;;;;;1.38;1.15;;;38.60;29.60;;;;;;5083588;28;20304;-78
2022/08/08 13:17:05;;;;;;;1.23;1.00;;;39.00;29.40;;;;;;5090039;28;20339;-79
2022/08/08 13:19:31;;;;;;;1.40;1.30;;;39.10;28.50;;;;;;5094699;28;20963;-78
2022/08/08 13:22:00;;;;;;;1.70;1.40;;;38.90;28.60;;;;;;5091139;28;21031;-78
2022/08/08 13:24:28;;;;;;;1.80;1.00;;;39.20;28.50;;;;;;5084428;28;20205;-78
2022/08/08 13:27:04;;;;;;;2.35;1.20;;;39.50;28.50;;;;;;5090529;28;20209;-79
2022/08/08 13:29:31;;;;;;;5.95;1.20;;;39.80;28.70;;;;;;5091384;28;20198;-79